DAL2457 KLAX-KPDX
Flight info
| Callsign | DAL2457 |
|---|---|
| Flight time | 1h 18m |
| Altitude | 36000 |
| Route | LADYJ4 CSTRO SHIMR LMT MOXEE TMBRS3 |
| Aircraft | A319/M-SDE3FGHIRWY/LB1 |
Departure
| Time | 2026-04-20 05:14 |
|---|---|
| Airport | Los Angeles International Airport (KLAX) |
Arrival
| Time | 2026-04-20 06:33 |
|---|---|
| Airport | Portland International Airport (KPDX) |
| Time | Latitude | Longitude | Altitude | Speed | Heading |
|---|---|---|---|---|---|
| 2026-04-20 04:45 | 33.94696 | -118.40335 | 95 ft | 0 kts | 260° |
| 2026-04-20 05:04 | 33.94698 | -118.40321 | 96 ft | 3 kts | 260° |
| 2026-04-20 05:04 | 33.94700 | -118.40298 | 95 ft | 3 kts | 294° |
| 2026-04-20 05:05 | 33.94691 | -118.40278 | 95 ft | 3 kts | 298° |
| 2026-04-20 05:05 | 33.94681 | -118.40258 | 95 ft | 3 kts | 324° |
| 2026-04-20 05:05 | 33.94676 | -118.40253 | 95 ft | 0 kts | 333° |
| 2026-04-20 05:08 | 33.94677 | -118.40253 | 98 ft | 0 kts | 346° |
| 2026-04-20 05:09 | 33.94694 | -118.40253 | 96 ft | 5 kts | 358° |
| 2026-04-20 05:09 | 33.94730 | -118.40257 | 97 ft | 3 kts | 351° |
| 2026-04-20 05:09 | 33.94734 | -118.40258 | 95 ft | 0 kts | 351° |
| 2026-04-20 05:10 | 33.94736 | -118.40258 | 95 ft | 2 kts | 351° |
| 2026-04-20 05:10 | 33.94761 | -118.40262 | 95 ft | 6 kts | 353° |
| 2026-04-20 05:11 | 33.94799 | -118.40270 | 96 ft | 5 kts | 344° |
| 2026-04-20 05:11 | 33.94830 | -118.40282 | 98 ft | 4 kts | 341° |
| 2026-04-20 05:11 | 33.94860 | -118.40293 | 98 ft | 5 kts | 351° |
| 2026-04-20 05:11 | 33.94890 | -118.40276 | 99 ft | 5 kts | 45° |
| 2026-04-20 05:12 | 33.94901 | -118.40229 | 100 ft | 8 kts | 84° |
| 2026-04-20 05:12 | 33.94908 | -118.40151 | 100 ft | 10 kts | 83° |
| 2026-04-20 05:12 | 33.94918 | -118.40064 | 99 ft | 11 kts | 83° |
| 2026-04-20 05:12 | 33.94927 | -118.39971 | 99 ft | 9 kts | 81° |
| 2026-04-20 05:13 | 33.94959 | -118.39918 | 102 ft | 6 kts | 24° |
| 2026-04-20 05:13 | 33.94982 | -118.39911 | 105 ft | 3 kts | 3° |
| 2026-04-20 05:13 | 33.95019 | -118.39922 | 108 ft | 9 kts | 329° |
| 2026-04-20 05:13 | 33.95036 | -118.40010 | 109 ft | 13 kts | 263° |
| 2026-04-20 05:14 | 33.95011 | -118.40257 | 109 ft | 63 kts | 262° |
| 2026-04-20 05:14 | 33.94927 | -118.41068 | 108 ft | 128 kts | 262° |
| 2026-04-20 05:14 | 33.94799 | -118.42332 | 235 ft | 164 kts | 262° |
| 2026-04-20 05:14 | 33.94657 | -118.43670 | 972 ft | 160 kts | 262° |
| 2026-04-20 05:15 | 33.94515 | -118.45000 | 1615 ft | 160 kts | 263° |
| 2026-04-20 05:15 | 33.94381 | -118.46372 | 2067 ft | 174 kts | 263° |
| 2026-04-20 05:15 | 33.94288 | -118.47922 | 2375 ft | 197 kts | 267° |
| 2026-04-20 05:15 | 33.94235 | -118.49674 | 2659 ft | 222 kts | 268° |
| 2026-04-20 05:16 | 33.94166 | -118.51645 | 3077 ft | 247 kts | 265° |
| 2026-04-20 05:16 | 33.94024 | -118.53795 | 3647 ft | 265 kts | 263° |
| 2026-04-20 05:16 | 33.93847 | -118.56030 | 4504 ft | 271 kts | 263° |
| 2026-04-20 05:16 | 33.93659 | -118.58307 | 5389 ft | 276 kts | 262° |
| 2026-04-20 05:17 | 33.93470 | -118.60597 | 6250 ft | 281 kts | 261° |
| 2026-04-20 05:17 | 33.93276 | -118.62964 | 7083 ft | 286 kts | 261° |
| 2026-04-20 05:17 | 33.93083 | -118.65352 | 7959 ft | 288 kts | 262° |
| 2026-04-20 05:17 | 33.92895 | -118.67768 | 8851 ft | 291 kts | 262° |
| 2026-04-20 05:18 | 33.92710 | -118.70208 | 9750 ft | 293 kts | 262° |
| 2026-04-20 05:18 | 33.92523 | -118.72662 | 10562 ft | 296 kts | 262° |
| 2026-04-20 05:18 | 33.92326 | -118.75195 | 10980 ft | 315 kts | 262° |
| 2026-04-20 05:18 | 33.92108 | -118.77920 | 11210 ft | 339 kts | 262° |
| 2026-04-20 05:19 | 33.91875 | -118.80838 | 11568 ft | 355 kts | 262° |
| 2026-04-20 05:19 | 33.91705 | -118.83827 | 11942 ft | 362 kts | 268° |
| 2026-04-20 05:19 | 33.91815 | -118.86879 | 12608 ft | 366 kts | 270° |
| 2026-04-20 05:19 | 33.91920 | -118.89950 | 13382 ft | 368 kts | 269° |
| 2026-04-20 05:20 | 33.92013 | -118.93041 | 14082 ft | 371 kts | 269° |
| 2026-04-20 05:20 | 33.92097 | -118.96111 | 14699 ft | 374 kts | 269° |
| 2026-04-20 05:20 | 33.92274 | -118.99248 | 15335 ft | 379 kts | 276° |
| 2026-04-20 05:20 | 33.92924 | -119.02350 | 15950 ft | 386 kts | 288° |
| 2026-04-20 05:21 | 33.94092 | -119.05283 | 16574 ft | 393 kts | 298° |
| 2026-04-20 05:21 | 33.95543 | -119.08083 | 17207 ft | 396 kts | 300° |
| 2026-04-20 05:21 | 33.97008 | -119.10909 | 17813 ft | 399 kts | 299° |
| 2026-04-20 05:21 | 33.98482 | -119.13758 | 18424 ft | 402 kts | 299° |
| 2026-04-20 05:22 | 34.00004 | -119.16609 | 18955 ft | 407 kts | 303° |
| 2026-04-20 05:22 | 34.01879 | -119.19187 | 19482 ft | 413 kts | 314° |
| 2026-04-20 05:22 | 34.04138 | -119.21353 | 20028 ft | 418 kts | 322° |
| 2026-04-20 05:22 | 34.06523 | -119.23387 | 20552 ft | 421 kts | 322° |
| 2026-04-20 05:23 | 34.08918 | -119.25433 | 21070 ft | 423 kts | 322° |
| 2026-04-20 05:23 | 34.11327 | -119.27499 | 21553 ft | 426 kts | 322° |
| 2026-04-20 05:23 | 34.13757 | -119.29590 | 22046 ft | 429 kts | 322° |
| 2026-04-20 05:23 | 34.16195 | -119.31696 | 22523 ft | 432 kts | 322° |
| 2026-04-20 05:24 | 34.18649 | -119.33812 | 22996 ft | 435 kts | 322° |
| 2026-04-20 05:24 | 34.21117 | -119.35939 | 23468 ft | 437 kts | 322° |
| 2026-04-20 05:24 | 34.23601 | -119.38083 | 23866 ft | 440 kts | 322° |
| 2026-04-20 05:24 | 34.26092 | -119.40239 | 24246 ft | 442 kts | 322° |
| 2026-04-20 05:25 | 34.28567 | -119.42379 | 24619 ft | 444 kts | 322° |
| 2026-04-20 05:25 | 34.31080 | -119.44554 | 24999 ft | 446 kts | 322° |
| 2026-04-20 05:25 | 34.33610 | -119.46740 | 25375 ft | 448 kts | 322° |
| 2026-04-20 05:25 | 34.36150 | -119.48934 | 25746 ft | 450 kts | 322° |
| 2026-04-20 05:26 | 34.38697 | -119.51141 | 26119 ft | 451 kts | 322° |
| 2026-04-20 05:26 | 34.41252 | -119.53363 | 26501 ft | 453 kts | 321° |
| 2026-04-20 05:26 | 34.43788 | -119.55639 | 26859 ft | 454 kts | 320° |
| 2026-04-20 05:26 | 34.46297 | -119.57978 | 27219 ft | 456 kts | 319° |
| 2026-04-20 05:27 | 34.48794 | -119.60365 | 27571 ft | 458 kts | 319° |
| 2026-04-20 05:27 | 34.51290 | -119.62776 | 27892 ft | 460 kts | 319° |
| 2026-04-20 05:27 | 34.53797 | -119.65192 | 28234 ft | 461 kts | 319° |
| 2026-04-20 05:27 | 34.56325 | -119.67604 | 28554 ft | 463 kts | 319° |
| 2026-04-20 05:28 | 34.58008 | -119.69198 | 28771 ft | 465 kts | 319° |
| 2026-04-20 05:28 | 34.60604 | -119.71646 | 29089 ft | 466 kts | 319° |
| 2026-04-20 05:28 | 34.63133 | -119.74028 | 29397 ft | 468 kts | 319° |
| 2026-04-20 05:28 | 34.65702 | -119.76453 | 29832 ft | 467 kts | 319° |
| 2026-04-20 05:29 | 34.68261 | -119.78875 | 30269 ft | 465 kts | 319° |
| 2026-04-20 05:29 | 34.70804 | -119.81288 | 30672 ft | 463 kts | 319° |
| 2026-04-20 05:29 | 34.73341 | -119.83697 | 31066 ft | 462 kts | 319° |
| 2026-04-20 05:29 | 34.75869 | -119.86100 | 31463 ft | 461 kts | 319° |
| 2026-04-20 05:30 | 34.78393 | -119.88496 | 31859 ft | 460 kts | 319° |
| 2026-04-20 05:30 | 34.80910 | -119.90886 | 32259 ft | 458 kts | 319° |
| 2026-04-20 05:30 | 34.83416 | -119.93271 | 32635 ft | 457 kts | 318° |
| 2026-04-20 05:30 | 34.85918 | -119.95655 | 33025 ft | 456 kts | 318° |
| 2026-04-20 05:31 | 34.88413 | -119.98033 | 33420 ft | 455 kts | 318° |
| 2026-04-20 05:31 | 34.90899 | -120.00407 | 33820 ft | 453 kts | 318° |
| 2026-04-20 05:31 | 34.93378 | -120.02775 | 34187 ft | 452 kts | 318° |
| 2026-04-20 05:31 | 34.95849 | -120.05134 | 34537 ft | 451 kts | 318° |
| 2026-04-20 05:32 | 34.98316 | -120.07492 | 34898 ft | 449 kts | 318° |
| 2026-04-20 05:32 | 35.00764 | -120.09838 | 35280 ft | 447 kts | 317° |
| 2026-04-20 05:32 | 35.03205 | -120.12178 | 35632 ft | 445 kts | 317° |
| 2026-04-20 05:32 | 35.05637 | -120.14511 | 35934 ft | 444 kts | 317° |
| 2026-04-20 05:33 | 35.08035 | -120.16810 | 36010 ft | 444 kts | 317° |
| 2026-04-20 05:33 | 35.12892 | -120.21478 | 36017 ft | 444 kts | 317° |
| 2026-04-20 05:34 | 35.17751 | -120.26157 | 36016 ft | 444 kts | 317° |
| 2026-04-20 05:34 | 35.25169 | -120.32990 | 36020 ft | 445 kts | 319° |
| 2026-04-20 05:35 | 35.30150 | -120.37494 | 36026 ft | 445 kts | 319° |
| 2026-04-20 05:35 | 35.35118 | -120.42021 | 36039 ft | 445 kts | 319° |
| 2026-04-20 05:36 | 35.40069 | -120.46574 | 36034 ft | 445 kts | 319° |
| 2026-04-20 05:36 | 35.45010 | -120.51133 | 36040 ft | 444 kts | 319° |
| 2026-04-20 05:37 | 35.50188 | -120.55221 | 36054 ft | 452 kts | 332° |
| 2026-04-20 05:37 | 35.56344 | -120.57075 | 36058 ft | 464 kts | 353° |
| 2026-04-20 05:38 | 35.62825 | -120.56412 | 36056 ft | 470 kts | 4° |
| 2026-04-20 05:38 | 35.69313 | -120.55283 | 36052 ft | 471 kts | 4° |
| 2026-04-20 05:39 | 35.75809 | -120.54163 | 36051 ft | 471 kts | 4° |
| 2026-04-20 05:39 | 35.82298 | -120.53037 | 36044 ft | 471 kts | 4° |
| 2026-04-20 05:40 | 35.88800 | -120.51906 | 36029 ft | 472 kts | 4° |
| 2026-04-20 05:40 | 35.95298 | -120.50773 | 36012 ft | 472 kts | 4° |
| 2026-04-20 05:41 | 36.01800 | -120.49634 | 35988 ft | 472 kts | 4° |
| 2026-04-20 05:41 | 36.08263 | -120.48495 | 35978 ft | 472 kts | 4° |
| 2026-04-20 05:42 | 36.14770 | -120.47347 | 35964 ft | 472 kts | 4° |
| 2026-04-20 05:42 | 36.21279 | -120.46200 | 35960 ft | 473 kts | 4° |
| 2026-04-20 05:43 | 36.27803 | -120.45054 | 35952 ft | 474 kts | 4° |
| 2026-04-20 05:43 | 36.34325 | -120.43905 | 35933 ft | 473 kts | 4° |
| 2026-04-20 05:44 | 36.40853 | -120.42752 | 35937 ft | 474 kts | 4° |
| 2026-04-20 05:44 | 36.47380 | -120.41592 | 35934 ft | 474 kts | 4° |
| 2026-04-20 05:45 | 36.53903 | -120.40435 | 35930 ft | 473 kts | 4° |
| 2026-04-20 05:45 | 36.68586 | -120.37822 | 35908 ft | 473 kts | 4° |
| 2026-04-20 05:46 | 36.94624 | -120.33166 | 35912 ft | 471 kts | 2° |
| 2026-04-20 05:46 | 37.20535 | -120.28491 | 35919 ft | 470 kts | 2° |
| 2026-04-20 05:47 | 37.46478 | -120.23796 | 35916 ft | 471 kts | 3° |
| 2026-04-20 05:47 | 37.72513 | -120.19050 | 35929 ft | 474 kts | 3° |
| 2026-04-20 05:48 | 37.98648 | -120.14228 | 35962 ft | 475 kts | 3° |
| 2026-04-20 05:48 | 38.24775 | -120.10563 | 35960 ft | 462 kts | 345° |
| 2026-04-20 05:49 | 38.49113 | -120.19777 | 35987 ft | 457 kts | 336° |
| 2026-04-20 05:49 | 38.73479 | -120.29460 | 36005 ft | 459 kts | 336° |
| 2026-04-20 05:50 | 38.97812 | -120.39167 | 35990 ft | 463 kts | 336° |
| 2026-04-20 05:50 | 39.22472 | -120.49074 | 36030 ft | 465 kts | 336° |
| 2026-04-20 05:51 | 39.47199 | -120.59079 | 35999 ft | 466 kts | 336° |
| 2026-04-20 05:51 | 39.72015 | -120.69199 | 35945 ft | 469 kts | 336° |
| 2026-04-20 05:52 | 39.96993 | -120.79470 | 35950 ft | 472 kts | 336° |
| 2026-04-20 05:52 | 40.22091 | -120.89876 | 35955 ft | 474 kts | 336° |
| 2026-04-20 05:53 | 40.47272 | -121.00384 | 35962 ft | 476 kts | 336° |
| 2026-04-20 05:53 | 40.72579 | -121.11047 | 35930 ft | 479 kts | 336° |
| 2026-04-20 05:54 | 40.98091 | -121.21858 | 35927 ft | 483 kts | 336° |
| 2026-04-20 05:54 | 41.23685 | -121.32802 | 35957 ft | 482 kts | 336° |
| 2026-04-20 05:55 | 41.49133 | -121.43781 | 35967 ft | 480 kts | 337° |
| 2026-04-20 05:55 | 41.74513 | -121.54835 | 35923 ft | 480 kts | 337° |
| 2026-04-20 05:56 | 42.00098 | -121.66038 | 35943 ft | 487 kts | 337° |
| 2026-04-20 05:56 | 42.19459 | -121.74690 | 35977 ft | 490 kts | 335° |
| 2026-04-20 05:57 | 42.25847 | -121.77897 | 35980 ft | 489 kts | 334° |
| 2026-04-20 05:57 | 42.32165 | -121.81134 | 35968 ft | 489 kts | 334° |
| 2026-04-20 05:58 | 42.38531 | -121.84344 | 35948 ft | 488 kts | 335° |
| 2026-04-20 05:58 | 42.44896 | -121.87524 | 35930 ft | 488 kts | 335° |
| 2026-04-20 05:59 | 42.51269 | -121.90705 | 35917 ft | 488 kts | 335° |
| 2026-04-20 05:59 | 42.57635 | -121.93889 | 35912 ft | 487 kts | 335° |
| 2026-04-20 06:00 | 42.63993 | -121.97095 | 35902 ft | 487 kts | 335° |
| 2026-04-20 06:00 | 42.70353 | -122.00311 | 35894 ft | 487 kts | 335° |
| 2026-04-20 06:01 | 42.76717 | -122.03538 | 35887 ft | 488 kts | 335° |
| 2026-04-20 06:01 | 42.83082 | -122.06766 | 35889 ft | 488 kts | 335° |
| 2026-04-20 06:02 | 42.89446 | -122.09999 | 35886 ft | 488 kts | 335° |
| 2026-04-20 06:02 | 42.95771 | -122.13214 | 35893 ft | 488 kts | 335° |
| 2026-04-20 06:03 | 43.02129 | -122.16470 | 35898 ft | 487 kts | 335° |
| 2026-04-20 06:03 | 43.08477 | -122.19725 | 35898 ft | 487 kts | 335° |
| 2026-04-20 06:04 | 43.14823 | -122.22975 | 35892 ft | 487 kts | 335° |
| 2026-04-20 06:04 | 43.21164 | -122.26229 | 35885 ft | 486 kts | 335° |
| 2026-04-20 06:05 | 43.27505 | -122.29501 | 35879 ft | 486 kts | 335° |
| 2026-04-20 06:05 | 43.33817 | -122.32765 | 35872 ft | 487 kts | 335° |
| 2026-04-20 06:06 | 43.40160 | -122.36040 | 35867 ft | 487 kts | 335° |
| 2026-04-20 06:06 | 43.46505 | -122.39327 | 35873 ft | 488 kts | 335° |
| 2026-04-20 06:07 | 43.52862 | -122.42643 | 35868 ft | 489 kts | 335° |
| 2026-04-20 06:07 | 43.59236 | -122.45965 | 35870 ft | 490 kts | 335° |
| 2026-04-20 06:08 | 43.65623 | -122.49294 | 35885 ft | 491 kts | 335° |
| 2026-04-20 06:08 | 43.71977 | -122.52622 | 35880 ft | 492 kts | 335° |
| 2026-04-20 06:09 | 43.78391 | -122.55990 | 35885 ft | 493 kts | 335° |
| 2026-04-20 06:09 | 43.84808 | -122.59361 | 35874 ft | 494 kts | 335° |
| 2026-04-20 06:10 | 43.91232 | -122.62738 | 35883 ft | 494 kts | 335° |
| 2026-04-20 06:10 | 43.97665 | -122.66136 | 35884 ft | 495 kts | 335° |
| 2026-04-20 06:11 | 44.00891 | -122.67846 | 35111 ft | 500 kts | 335° |
| 2026-04-20 06:11 | 44.04163 | -122.69586 | 34024 ft | 506 kts | 336° |
| 2026-04-20 06:11 | 44.07466 | -122.71341 | 32748 ft | 511 kts | 336° |
| 2026-04-20 06:11 | 44.10812 | -122.73087 | 31500 ft | 516 kts | 339° |
| 2026-04-20 06:12 | 44.14300 | -122.74343 | 30314 ft | 521 kts | 348° |
| 2026-04-20 06:12 | 44.17912 | -122.74876 | 28893 ft | 523 kts | 358° |
| 2026-04-20 06:12 | 44.21544 | -122.74697 | 27292 ft | 522 kts | 5° |
| 2026-04-20 06:12 | 44.25121 | -122.74314 | 26567 ft | 503 kts | 5° |
| 2026-04-20 06:13 | 44.28569 | -122.73955 | 25858 ft | 495 kts | 5° |
| 2026-04-20 06:13 | 44.31993 | -122.73616 | 25091 ft | 490 kts | 5° |
| 2026-04-20 06:13 | 44.35380 | -122.73288 | 24338 ft | 486 kts | 4° |
| 2026-04-20 06:13 | 44.38741 | -122.72968 | 23600 ft | 482 kts | 5° |
| 2026-04-20 06:14 | 44.42031 | -122.72650 | 22812 ft | 477 kts | 5° |
| 2026-04-20 06:14 | 44.45365 | -122.72326 | 22128 ft | 471 kts | 5° |
| 2026-04-20 06:14 | 44.48570 | -122.72012 | 21513 ft | 464 kts | 5° |
| 2026-04-20 06:14 | 44.51733 | -122.71699 | 21353 ft | 448 kts | 5° |
| 2026-04-20 06:15 | 44.54788 | -122.71392 | 21220 ft | 433 kts | 5° |
| 2026-04-20 06:15 | 44.57744 | -122.71093 | 21091 ft | 420 kts | 5° |
| 2026-04-20 06:15 | 44.60620 | -122.70804 | 20912 ft | 409 kts | 5° |
| 2026-04-20 06:15 | 44.63437 | -122.70521 | 20433 ft | 403 kts | 5° |
| 2026-04-20 06:16 | 44.66221 | -122.70245 | 19776 ft | 400 kts | 5° |
| 2026-04-20 06:16 | 44.68982 | -122.69969 | 19111 ft | 396 kts | 5° |
| 2026-04-20 06:16 | 44.71717 | -122.69693 | 18467 ft | 392 kts | 5° |
| 2026-04-20 06:16 | 44.74432 | -122.69414 | 17802 ft | 388 kts | 5° |
| 2026-04-20 06:17 | 44.77112 | -122.69139 | 17210 ft | 383 kts | 5° |
| 2026-04-20 06:17 | 44.79759 | -122.68875 | 16709 ft | 379 kts | 5° |
| 2026-04-20 06:17 | 44.82377 | -122.68618 | 16160 ft | 375 kts | 5° |
| 2026-04-20 06:17 | 44.84974 | -122.68361 | 15637 ft | 374 kts | 5° |
| 2026-04-20 06:18 | 44.87571 | -122.68098 | 15088 ft | 373 kts | 5° |
| 2026-04-20 06:18 | 44.90143 | -122.67835 | 14579 ft | 369 kts | 5° |
| 2026-04-20 06:18 | 44.92695 | -122.67573 | 14165 ft | 363 kts | 5° |
| 2026-04-20 06:18 | 44.95161 | -122.67323 | 14032 ft | 348 kts | 5° |
| 2026-04-20 06:19 | 44.96751 | -122.67161 | 13827 ft | 343 kts | 5° |
| 2026-04-20 06:19 | 44.99114 | -122.66917 | 13448 ft | 339 kts | 5° |
| 2026-04-20 06:19 | 45.01457 | -122.66679 | 12985 ft | 336 kts | 5° |
| 2026-04-20 06:19 | 45.03784 | -122.66446 | 12501 ft | 334 kts | 5° |
| 2026-04-20 06:20 | 45.06093 | -122.66215 | 12022 ft | 332 kts | 5° |
| 2026-04-20 06:20 | 45.08392 | -122.65986 | 11568 ft | 329 kts | 5° |
| 2026-04-20 06:20 | 45.10661 | -122.65756 | 11095 ft | 327 kts | 5° |
| 2026-04-20 06:20 | 45.12917 | -122.65524 | 10655 ft | 323 kts | 5° |
| 2026-04-20 06:21 | 45.15153 | -122.65295 | 10233 ft | 320 kts | 5° |
| 2026-04-20 06:21 | 45.17371 | -122.65068 | 9771 ft | 318 kts | 5° |
| 2026-04-20 06:21 | 45.19565 | -122.64843 | 9271 ft | 315 kts | 5° |
| 2026-04-20 06:21 | 45.21734 | -122.64622 | 8860 ft | 310 kts | 6° |
| 2026-04-20 06:22 | 45.23862 | -122.64298 | 8365 ft | 305 kts | 14° |
| 2026-04-20 06:22 | 45.25841 | -122.63368 | 7927 ft | 297 kts | 28° |
| 2026-04-20 06:22 | 45.27600 | -122.61898 | 7467 ft | 290 kts | 36° |
| 2026-04-20 06:22 | 45.29292 | -122.60373 | 7037 ft | 286 kts | 36° |
| 2026-04-20 06:23 | 45.30959 | -122.58875 | 6622 ft | 281 kts | 35° |
| 2026-04-20 06:23 | 45.32599 | -122.57404 | 6207 ft | 276 kts | 35° |
| 2026-04-20 06:23 | 45.34189 | -122.55979 | 5804 ft | 272 kts | 35° |
| 2026-04-20 06:23 | 45.35781 | -122.54553 | 5404 ft | 268 kts | 34° |
| 2026-04-20 06:24 | 45.37354 | -122.53144 | 5006 ft | 266 kts | 34° |
| 2026-04-20 06:24 | 45.38877 | -122.51776 | 4845 ft | 248 kts | 34° |
| 2026-04-20 06:24 | 45.40271 | -122.50525 | 4770 ft | 228 kts | 35° |
| 2026-04-20 06:24 | 45.41587 | -122.49338 | 4672 ft | 222 kts | 35° |
| 2026-04-20 06:25 | 45.42883 | -122.48165 | 4508 ft | 219 kts | 35° |
| 2026-04-20 06:25 | 45.44125 | -122.46925 | 4168 ft | 217 kts | 47° |
| 2026-04-20 06:25 | 45.44802 | -122.45063 | 3819 ft | 213 kts | 82° |
| 2026-04-20 06:25 | 45.44590 | -122.43010 | 3559 ft | 210 kts | 112° |
| 2026-04-20 06:26 | 45.43953 | -122.41183 | 3447 ft | 203 kts | 117° |
| 2026-04-20 06:26 | 45.43299 | -122.39443 | 3310 ft | 196 kts | 115° |
| 2026-04-20 06:26 | 45.43089 | -122.37619 | 3187 ft | 184 kts | 79° |
| 2026-04-20 06:26 | 45.43737 | -122.36113 | 3051 ft | 179 kts | 38° |
| 2026-04-20 06:27 | 45.44870 | -122.35636 | 2991 ft | 167 kts | 1° |
| 2026-04-20 06:27 | 45.45977 | -122.35766 | 2991 ft | 153 kts | 355° |
| 2026-04-20 06:27 | 45.47049 | -122.35961 | 3006 ft | 162 kts | 355° |
| 2026-04-20 06:27 | 45.48168 | -122.36174 | 3004 ft | 166 kts | 354° |
| 2026-04-20 06:28 | 45.49251 | -122.36763 | 2998 ft | 170 kts | 329° |
| 2026-04-20 06:28 | 45.50060 | -122.37981 | 2996 ft | 167 kts | 303° |
| 2026-04-20 06:28 | 45.50605 | -122.39373 | 2926 ft | 157 kts | 302° |
| 2026-04-20 06:28 | 45.51128 | -122.40705 | 2779 ft | 149 kts | 302° |
| 2026-04-20 06:29 | 45.51618 | -122.41956 | 2601 ft | 141 kts | 303° |
| 2026-04-20 06:29 | 45.52092 | -122.43163 | 2429 ft | 138 kts | 303° |
| 2026-04-20 06:29 | 45.52558 | -122.44349 | 2252 ft | 136 kts | 303° |
| 2026-04-20 06:29 | 45.53013 | -122.45510 | 2074 ft | 133 kts | 303° |
| 2026-04-20 06:30 | 45.53464 | -122.46650 | 1892 ft | 131 kts | 304° |
| 2026-04-20 06:30 | 45.53905 | -122.47777 | 1736 ft | 129 kts | 303° |
| 2026-04-20 06:30 | 45.54341 | -122.48894 | 1571 ft | 129 kts | 302° |
| 2026-04-20 06:30 | 45.54778 | -122.50012 | 1370 ft | 129 kts | 302° |
| 2026-04-20 06:31 | 45.55216 | -122.51131 | 1206 ft | 129 kts | 302° |
| 2026-04-20 06:31 | 45.55649 | -122.52233 | 1074 ft | 129 kts | 300° |
| 2026-04-20 06:31 | 45.56083 | -122.53349 | 880 ft | 128 kts | 300° |
| 2026-04-20 06:31 | 45.56517 | -122.54457 | 729 ft | 128 kts | 300° |
| 2026-04-20 06:32 | 45.56950 | -122.55556 | 543 ft | 127 kts | 299° |
| 2026-04-20 06:32 | 45.57374 | -122.56650 | 374 ft | 125 kts | 299° |
| 2026-04-20 06:32 | 45.57790 | -122.57725 | 194 ft | 123 kts | 300° |
| 2026-04-20 06:32 | 45.58205 | -122.58792 | 47 ft | 122 kts | 300° |
| 2026-04-20 06:33 | 45.58565 | -122.59711 | 37 ft | 85 kts | 300° |
| 2026-04-20 06:33 | 45.58770 | -122.60231 | 31 ft | 33 kts | 299° |
| 2026-04-20 06:33 | 45.58863 | -122.60439 | 30 ft | 20 kts | 322° |
| 2026-04-20 06:33 | 45.58955 | -122.60449 | 33 ft | 10 kts | 30° |
| 2026-04-20 06:34 | 45.58999 | -122.60385 | 33 ft | 9 kts | 46° |
| 2026-04-20 06:34 | 45.59045 | -122.60319 | 33 ft | 11 kts | 45° |
| 2026-04-20 06:34 | 45.59138 | -122.60154 | 33 ft | 10 kts | 86° |
| 2026-04-20 06:35 | 45.59138 | -122.60048 | 32 ft | 12 kts | 90° |
| 2026-04-20 06:35 | 45.59138 | -122.59947 | 31 ft | 10 kts | 97° |
| 2026-04-20 06:35 | 45.59116 | -122.59874 | 30 ft | 3 kts | 120° |
| 2026-04-20 06:35 | 45.59102 | -122.59855 | 32 ft | 3 kts | 153° |
| 2026-04-20 06:36 | 45.59091 | -122.59856 | 32 ft | 1 kts | 184° |
| 2026-04-20 06:36 | 45.59077 | -122.59865 | 31 ft | 2 kts | 212° |
| 2026-04-20 06:36 | 45.59062 | -122.59879 | 32 ft | 3 kts | 210° |
| 2026-04-20 06:36 | 45.59046 | -122.59892 | 33 ft | 2 kts | 210° |
| 2026-04-20 06:37 | 45.59043 | -122.59895 | 33 ft | 0 kts | 210° |